Airport View

Enter AWOS ICAO identifier for current METAR.

ex. KFNL

KY19 190630Z AUTO 22009KT 10SM CLR 04/04 A3005 RMK AO2

19 Apr 2019 06:31

Frequency: 118.225

Phone: 701-663-0271

Other Area AWOS: KBIS - KD57 - KHZE - K7L2

TAF KBIS 190537Z 1906/2006 21003KT P6SM SCT250 FM191800 20012G22KT P6SM SCT250 FM200100 22006KT P6SM SCT250